Terminal Aerodrome Forecast
Issued by NWS Jackson, MS

Home | Current Version | Previous Version | Text Only | Print | Product List | Glossary On
Versions: 1 2 3 4 5 6 7 8 9 10 11 12 13 14 15 16 17 18 19
000
FTUS44 KMEG 031127
TAFTUP
TAF
KTUP 031127Z 0312/0412 16003KT 1SM -DZ BR OVC003
     FM031500 19006KT P6SM OVC007
     FM032100 21008KT 4SM -RA BR OVC004=

USA.gov is the U.S. government's official web portal to all federal, state and local government web resources and services.